Time;durP1;ratioP1;P1;durP2;ratioP2;P2;SDS_P1;SDS_P2;PMS_P1;PMS_P2;Temp;Humidity;BMP_temperature;BMP_pressure;BME280_temperature;BME280_humidity;BME280_pressure;Samples;Min_cycle;Max_cycle;Signal;HPM_P1;HPM_P2
2021/08/07 00:01:05;;;;;;;0.10;0.10;;;;;;;17.82;91.28;99006.44;4812329;29;20039;-79
2021/08/07 00:03:31;;;;;;;0.10;0.10;;;;;;;17.80;91.52;99003.06;4811958;29;20047;-80
2021/08/07 00:05:57;;;;;;;0.10;0.10;;;;;;;17.76;91.60;99001.81;4816211;29;20055;-78
2021/08/07 00:08:22;;;;;;;0.10;0.10;;;;;;;17.79;91.62;99006.84;4815016;29;20454;-77
2021/08/07 00:10:48;;;;;;;0.10;0.10;;;;;;;17.79;91.44;99006.84;4796364;29;20089;-78
2021/08/07 00:13:14;;;;;;;0.10;0.10;;;;;;;17.76;91.83;99001.81;4760107;30;20530;-77
2021/08/07 00:15:40;;;;;;;0.10;0.10;;;;;;;17.75;92.04;99006.44;4789210;29;20103;-78
2021/08/07 00:18:05;;;;;;;0.10;0.10;;;;;;;17.73;91.67;98997.56;4799511;29;20070;-77
2021/08/07 00:20:31;;;;;;;0.10;0.10;;;;;;;17.74;91.83;99003.91;4802192;29;20059;-79
2021/08/07 00:22:57;;;;;;;0.10;0.10;;;;;;;17.71;92.06;99009.78;4784481;29;20516;-78
2021/08/07 00:25:23;;;;;;;0.10;0.10;;;;;;;17.71;91.96;99005.16;4804641;29;20051;-80
2021/08/07 00:27:49;;;;;;;0.10;0.10;;;;;;;17.69;91.82;99017.34;4775296;29;20043;-80
2021/08/07 00:30:15;;;;;;;0.10;0.10;;;;;;;17.71;91.97;99015.25;4782119;29;20079;-78
2021/08/07 00:32:41;;;;;;;0.10;0.10;;;;;;;17.71;92.09;99021.56;4798307;29;20425;-77
2021/08/07 00:35:11;;;;;;;0.10;0.10;;;;;;;17.70;92.23;99013.59;4773668;29;20114;-78
2021/08/07 00:37:40;;;;;;;0.10;0.10;;;;;;;17.76;91.47;99007.28;4795740;29;20485;-77
2021/08/07 00:40:10;;;;;;;0.17;0.17;;;;;;;17.73;91.48;99010.41;4781886;29;20054;-76
2021/08/07 00:42:36;;;;;;;0.13;0.13;;;;;;;17.73;91.90;99002.19;4771832;29;20050;-79
2021/08/07 00:45:11;;;;;;;0.10;0.10;;;;;;;17.74;92.07;99014.84;4775408;29;20151;-79
2021/08/07 00:47:43;;;;;;;0.10;0.10;;;;;;;17.71;91.58;99010.63;4760039;29;20118;-78
2021/08/07 00:50:10;;;;;;;0.10;0.10;;;;;;;17.67;92.17;99003.06;4797459;29;20047;-78
2021/08/07 00:52:38;;;;;;;0.10;0.10;;;;;;;17.67;91.87;99003.06;4774217;29;20111;-78
2021/08/07 00:55:06;;;;;;;0.10;0.10;;;;;;;17.63;91.90;98996.34;4775571;29;20209;-78
2021/08/07 00:57:33;;;;;;;0.10;0.10;;;;;;;17.60;92.00;98998.44;4783309;29;20039;-78
2021/08/07 00:59:59;;;;;;;0.10;0.10;;;;;;;17.60;92.19;98992.97;4766175;29;20039;-76
2021/08/07 01:02:25;;;;;;;0.10;0.10;;;;;;;17.64;92.35;98993.41;4799156;29;20061;-76
2021/08/07 01:05:05;;;;;;;0.10;0.10;;;;;;;17.65;92.09;98988.75;4778141;29;20471;-76
2021/08/07 01:07:42;;;;;;;0.15;0.15;;;;;;;17.63;92.25;98985.41;4767987;29;20050;-77
2021/08/07 01:10:33;;;;;;;0.10;0.10;;;;;;;17.64;92.12;98981.63;4752681;29;20550;-77
2021/08/07 01:13:09;;;;;;;0.10;0.10;;;;;;;17.62;91.71;98981.81;4771780;29;20070;-77
2021/08/07 01:15:42;;;;;;;0.10;0.10;;;;;;;17.63;92.23;98979.94;4774728;29;20059;-81
2021/08/07 01:18:13;;;;;;;0.10;0.10;;;;;;;17.62;92.09;98980.97;4758305;29;20123;-78
2021/08/07 01:20:43;;;;;;;0.10;0.10;;;;;;;17.61;92.21;98982.88;4788461;29;20134;-77
2021/08/07 01:23:22;;;;;;;0.10;0.10;;;;;;;17.56;92.32;98980.78;4780452;29;20069;-78
2021/08/07 01:26:29;;;;;;;0.10;0.10;;;;;;;17.57;92.23;98976.16;4786169;29;20628;-77
2021/08/07 01:29:11;;;;;;;0.10;0.10;;;;;;;17.52;92.73;98968.59;4761796;29;20078;-76
2021/08/07 01:31:37;;;;;;;0.10;0.10;;;;;;;17.54;92.54;98971.94;4755481;29;20506;-78
2021/08/07 01:34:08;;;;;;;0.10;0.10;;;;;;;17.55;92.65;98970.94;4754981;29;20382;-79
2021/08/07 01:36:44;;;;;;;0.17;0.17;;;;;;;17.54;92.51;98965.66;4786550;29;20382;-78
2021/08/07 01:39:17;;;;;;;0.10;0.10;;;;;;;17.54;92.44;98971.94;4759654;29;20134;-78
2021/08/07 01:41:44;;;;;;;0.10;0.10;;;;;;;17.52;92.43;98974.06;4771597;29;20039;-77
2021/08/07 01:44:16;;;;;;;0.10;0.10;;;;;;;17.53;92.24;98975.75;4764358;30;20122;-77
2021/08/07 01:46:58;;;;;;;0.10;0.10;;;;;;;17.57;92.16;98971.53;4770539;29;20425;-78
2021/08/07 01:49:45;;;;;;;0.10;0.10;;;;;;;17.56;92.11;98958.94;4764464;29;20137;-78
2021/08/07 01:52:22;;;;;;;0.10;0.10;;;;;;;17.55;92.35;98962.72;4745000;29;20089;-78
2021/08/07 01:55:03;;;;;;;0.10;0.10;;;;;;;17.54;92.44;98958.28;4788990;29;20061;-78
2021/08/07 01:57:34;;;;;;;0.10;0.10;;;;;;;17.55;92.31;98979.13;4793053;29;20091;-76
2021/08/07 02:00:02;;;;;;;0.10;0.10;;;;;;;17.52;92.25;98989.63;4773915;29;20587;-78
2021/08/07 02:02:29;;;;;;;0.10;0.10;;;;;;;17.51;92.34;98977.84;4790707;29;20195;-77
2021/08/07 02:04:58;;;;;;;0.10;0.10;;;;;;;17.50;92.58;98970.69;4792216;29;20100;-77
2021/08/07 02:07:28;;;;;;;0.15;0.15;;;;;;;17.53;92.66;98978.47;4768811;29;20046;-80
2021/08/07 02:10:00;;;;;;;0.10;0.10;;;;;;;17.52;92.56;98968.59;4763731;30;20506;-79
2021/08/07 02:12:28;;;;;;;0.10;0.10;;;;;;;17.54;92.34;98977.41;4786559;29;20096;-78
2021/08/07 02:15:03;;;;;;;0.10;0.10;;;;;;;17.53;92.50;98975.75;4784946;29;20530;-77
2021/08/07 02:17:30;;;;;;;0.10;0.10;;;;;;;17.53;92.66;98994.88;4789524;29;20092;-77
2021/08/07 02:19:57;;;;;;;0.10;0.10;;;;;;;17.54;92.35;98999.28;4775302;29;20066;-77
2021/08/07 02:22:24;;;;;;;0.10;0.10;;;;;;;17.57;92.07;99003.50;4807501;29;20043;-79
2021/08/07 02:24:50;;;;;;;0.10;0.10;;;;;;;17.56;92.31;99012.75;4768216;29;20063;-77
2021/08/07 02:27:28;;;;;;;0.10;0.10;;;;;;;17.56;92.47;99019.06;4775020;29;20039;-79
2021/08/07 02:29:55;;;;;;;0.10;0.10;;;;;;;17.53;92.11;98997.63;4754184;29;20112;-78
2021/08/07 02:32:22;;;;;;;0.10;0.10;;;;;;;17.59;92.29;98974.91;4774878;29;20051;-81
2021/08/07 02:34:55;;;;;;;0.10;0.10;;;;;;;17.59;92.06;98983.09;4782438;29;20058;-78
2021/08/07 02:37:27;;;;;;;0.10;0.10;;;;;;;17.60;92.22;98987.50;4773204;29;20047;-80
2021/08/07 02:39:54;;;;;;;0.10;0.10;;;;;;;17.60;92.61;98982.03;4782048;29;20449;-78
2021/08/07 02:42:20;;;;;;;0.10;0.10;;;;;;;17.63;92.58;98990.88;4785387;29;20091;-78
2021/08/07 02:44:46;;;;;;;0.10;0.10;;;;;;;17.60;92.37;98992.16;4758772;29;20042;-77
2021/08/07 02:47:15;;;;;;;0.10;0.10;;;;;;;17.62;92.22;98995.47;4783167;29;20598;-79
2021/08/07 02:49:43;;;;;;;0.10;0.10;;;;;;;17.62;91.94;99000.13;4803301;29;20046;-79
2021/08/07 02:52:10;;;;;;;0.10;0.10;;;;;;;17.65;92.13;98984.13;4760320;29;20138;-79
2021/08/07 02:54:36;;;;;;;0.10;0.10;;;;;;;17.69;91.75;98951.75;4775304;29;20474;-78
2021/08/07 02:57:03;;;;;;;0.10;0.10;;;;;;;17.56;91.77;98925.28;4770612;29;20047;-78
2021/08/07 02:59:31;;;;;;;0.10;0.10;;;;;;;17.60;92.54;98926.53;4765173;29;20130;-79
2021/08/07 03:01:57;;;;;;;0.17;0.17;;;;;;;17.57;92.37;98927.81;4765011;29;20656;-78
2021/08/07 03:04:23;;;;;;;0.10;0.10;;;;;;;17.57;92.45;98954.31;4782841;29;20116;-77
2021/08/07 03:06:53;;;;;;;0.15;0.15;;;;;;;17.63;92.48;98985.41;4782290;29;20047;-77
2021/08/07 03:09:20;;;;;;;0.10;0.10;;;;;;;17.69;92.80;98979.06;4781309;29;20050;-79
2021/08/07 03:11:49;;;;;;;0.10;0.10;;;;;;;17.69;91.99;98979.06;4786574;29;20490;-78
2021/08/07 03:14:18;;;;;;;0.10;0.10;;;;;;;17.70;91.80;98976.16;4795715;29;20054;-79
2021/08/07 03:16:44;;;;;;;0.10;0.10;;;;;;;17.73;91.83;98991.25;4791408;29;20119;-79
2021/08/07 03:19:14;;;;;;;0.10;0.10;;;;;;;17.77;91.88;98998.00;4801047;29;20047;-78
2021/08/07 03:21:41;;;;;;;0.10;0.10;;;;;;;17.80;91.17;99003.88;4790141;29;20544;-78
2021/08/07 03:24:08;;;;;;;0.20;0.20;;;;;;;17.84;91.29;98987.91;4803179;29;20078;-78
2021/08/07 03:26:37;;;;;;;0.10;0.10;;;;;;;17.91;90.79;98987.88;4786040;29;20163;-79
2021/08/07 03:29:13;;;;;;;0.20;0.20;;;;;;;17.97;90.56;98993.34;4769676;29;23463;-80
2021/08/07 03:31:39;;;;;;;0.20;0.20;;;;;;;18.05;90.51;98987.63;4787893;29;20126;-78
2021/08/07 03:34:05;;;;;;;0.20;0.20;;;;;;;18.15;89.78;98989.91;4792000;29;20126;-78
2021/08/07 03:36:31;;;;;;;0.20;0.20;;;;;;;18.28;89.03;98978.06;4788359;29;20142;-77
2021/08/07 03:39:01;;;;;;;0.20;0.20;;;;;;;18.30;88.47;98967.75;4803302;29;20057;-78
2021/08/07 03:41:29;;;;;;;0.20;0.20;;;;;;;18.40;88.53;98981.81;4758666;29;20073;-76
2021/08/07 03:43:55;;;;;;;0.10;0.10;;;;;;;18.44;88.44;98983.03;4787933;29;20485;-77
2021/08/07 03:46:23;;;;;;;0.20;0.20;;;;;;;18.52;88.01;98980.03;4771449;29;20124;-79
2021/08/07 03:48:50;;;;;;;0.20;0.20;;;;;;;18.72;87.35;98990.94;4784344;29;20473;-80
2021/08/07 03:51:16;;;;;;;0.20;0.20;;;;;;;18.95;85.93;98987.59;4787568;29;20042;-82
2021/08/07 03:53:45;;;;;;;0.15;0.15;;;;;;;19.14;85.00;98983.03;4786093;29;20129;-82
2021/08/07 03:56:13;;;;;;;0.20;0.20;;;;;;;19.15;84.43;98981.13;4774399;29;20039;-82
2021/08/07 03:58:40;;;;;;;0.10;0.10;;;;;;;19.06;85.09;98974.25;4775784;29;20051;-79
2021/08/07 04:01:14;;;;;;;0.10;0.10;;;;;;;19.00;85.28;98986.94;4789363;29;20097;-77
2021/08/07 04:03:40;;;;;;;0.20;0.20;;;;;;;19.25;84.59;98973.25;4787764;29;20039;-79
2021/08/07 04:06:06;;;;;;;0.20;0.20;;;;;;;19.40;83.82;98976.47;4787393;29;20148;-78
2021/08/07 04:08:35;;;;;;;0.20;0.20;;;;;;;19.50;83.40;98976.81;4789457;29;20131;-79
2021/08/07 04:11:01;;;;;;;0.20;0.20;;;;;;;19.64;82.33;98973.97;4785533;29;20151;-81
2021/08/07 04:13:33;;;;;;;0.20;0.20;;;;;;;19.72;82.04;98980.00;4787657;29;20142;-80
2021/08/07 04:16:03;;;;;;;0.20;0.20;;;;;;;19.85;81.20;98989.97;4774514;29;20062;-82
2021/08/07 04:18:29;;;;;;;0.10;0.10;;;;;;;20.01;80.56;98982.22;4779925;29;20055;-79
2021/08/07 04:20:55;;;;;;;0.20;0.20;;;;;;;20.00;80.46;98986.88;4790040;29;20038;-80
2021/08/07 04:23:22;;;;;;;0.22;0.22;;;;;;;20.23;79.61;98986.19;4791844;29;20129;-79
2021/08/07 04:25:49;;;;;;;0.20;0.20;;;;;;;20.48;78.54;98984.16;4783961;29;20047;-79
2021/08/07 04:28:16;;;;;;;0.20;0.20;;;;;;;20.61;77.69;98988.66;4776113;29;20054;-79
2021/08/07 04:30:44;;;;;;;0.17;0.17;;;;;;;20.48;77.34;98995.16;4777339;29;20389;-82
2021/08/07 04:33:11;;;;;;;0.10;0.10;;;;;;;20.30;77.65;98992.44;4775951;29;20062;-77
2021/08/07 04:35:43;;;;;;;0.20;0.20;;;;;;;20.28;78.31;99000.03;4788616;29;20055;-80
2021/08/07 04:38:15;;;;;;;0.20;0.20;;;;;;;20.28;77.91;98989.06;4781974;29;20051;-80
2021/08/07 04:40:43;;;;;;;0.13;0.13;;;;;;;20.37;78.44;98993.19;4748624;29;20101;-82
2021/08/07 04:43:17;;;;;;;0.20;0.20;;;;;;;20.36;77.66;99002.47;4791496;29;20534;-83
2021/08/07 04:45:43;;;;;;;0.20;0.20;;;;;;;20.52;77.36;99011.19;4786363;29;20107;-80
2021/08/07 04:48:10;;;;;;;0.20;0.20;;;;;;;20.80;76.57;99014.16;4780359;29;20078;-78
2021/08/07 04:50:59;;;;;;;0.20;0.20;;;;;;;20.97;75.57;99002.50;4782410;29;20066;-80
2021/08/07 04:53:34;;;;;;;0.20;0.20;;;;;;;21.04;74.78;99004.09;4784724;29;20115;-79
2021/08/07 04:56:06;;;;;;;0.20;0.20;;;;;;;21.30;74.16;99007.50;4770693;29;20054;-82
2021/08/07 04:58:33;;;;;;;0.10;0.10;;;;;;;21.25;74.02;99001.88;4789584;29;20219;-80
2021/08/07 05:01:02;;;;;;;0.10;0.10;;;;;;;21.30;73.63;99008.31;4787249;29;20047;-79
2021/08/07 05:03:29;;;;;;;0.10;0.10;;;;;;;21.22;74.10;99002.34;4785875;29;20057;-81
2021/08/07 05:05:57;;;;;;;0.20;0.20;;;;;;;21.16;75.02;99009.59;4751292;29;20161;-79
2021/08/07 05:08:24;;;;;;;0.10;0.10;;;;;;;20.95;74.69;99005.47;4762586;29;20051;-82
2021/08/07 05:10:50;;;;;;;0.13;0.13;;;;;;;20.78;75.18;98999.84;4786723;29;20062;-81
2021/08/07 05:13:16;;;;;;;0.20;0.20;;;;;;;20.87;74.67;98995.66;4790418;29;20133;-80
2021/08/07 05:15:43;;;;;;;0.40;0.40;;;;;;;21.45;73.11;99020.81;4787862;29;20073;-83
2021/08/07 05:18:10;;;;;;;0.30;0.30;;;;;;;22.03;70.95;99019.97;4788155;29;20058;-82
2021/08/07 05:20:39;;;;;;;0.30;0.30;;;;;;;22.39;68.96;98997.66;4801777;29;20085;-79
2021/08/07 05:23:05;;;;;;;0.30;0.30;;;;;;;22.74;68.12;98996.69;4784020;29;20070;-82
2021/08/07 05:25:34;;;;;;;0.35;0.35;;;;;;;23.03;66.54;98988.41;4779286;29;20050;-82
2021/08/07 05:28:03;;;;;;;0.30;0.30;;;;;;;23.29;65.00;98992.44;4767212;29;20615;-82
2021/08/07 05:30:32;;;;;;;0.40;0.40;;;;;;;23.61;64.77;98989.94;4763832;29;20042;-84
2021/08/07 05:33:01;;;;;;;0.17;0.17;;;;;;;23.59;64.64;98978.31;4808268;29;20051;-82
2021/08/07 05:35:26;;;;;;;0.20;0.20;;;;;;;23.27;65.45;98967.88;4791834;29;20039;-82
2021/08/07 05:37:56;;;;;;;0.15;0.15;;;;;;;23.10;66.16;98991.84;4797746;29;20047;-81
2021/08/07 05:40:23;;;;;;;0.20;0.20;;;;;;;22.88;66.39;99002.72;4738458;29;20079;-79
2021/08/07 05:42:51;;;;;;;0.10;0.10;;;;;;;22.81;66.57;98985.50;4776228;29;20046;-79
2021/08/07 05:45:18;;;;;;;0.28;0.28;;;;;;;22.75;66.94;98975.50;4775911;29;20034;-80
2021/08/07 05:47:45;;;;;;;0.20;0.20;;;;;;;22.86;67.14;98964.41;4798849;29;20553;-81
2021/08/07 05:50:10;;;;;;;0.20;0.20;;;;;;;22.87;67.06;98959.72;4791515;29;20062;-83
2021/08/07 05:52:38;;;;;;;0.20;0.20;;;;;;;23.07;67.07;98956.50;4800182;29;20080;-83
2021/08/07 05:55:05;;;;;;;0.30;0.30;;;;;;;23.45;66.16;98952.16;4794897;29;20061;-81
2021/08/07 05:57:31;;;;;;;0.40;0.40;;;;;;;24.13;64.91;98961.97;4797100;29;20086;-80
2021/08/07 05:59:58;;;;;;;0.20;0.20;;;;;;;24.02;65.17;98966.56;4799060;29;20583;-81
2021/08/07 06:02:25;;;;;;;0.20;0.20;;;;;;;24.21;64.20;98967.06;4793794;29;20256;-82
2021/08/07 06:04:52;;;;;;;0.70;0.70;;;;;;;24.55;63.09;98972.47;4779407;29;20462;-84
2021/08/07 06:07:19;;;;;;;0.70;0.70;;;;;;;25.52;60.08;98962.31;4802367;29;20552;-82
2021/08/07 06:09:47;;;;;;;0.50;0.50;;;;;;;26.00;58.53;98966.00;4795684;29;20133;-84
2021/08/07 06:12:14;;;;;;;0.20;0.20;;;;;;;25.80;59.09;98963.09;4780983;29;20186;-83
2021/08/07 06:14:40;;;;;;;0.20;0.20;;;;;;;25.56;59.67;98966.25;4808007;29;20169;-85
2021/08/07 06:17:08;;;;;;;0.20;0.20;;;;;;;25.38;60.46;98970.28;4768716;29;20117;-86
2021/08/07 06:19:37;;;;;;;0.30;0.30;;;;;;;25.45;59.25;98958.97;4792302;29;20104;-83
2021/08/07 06:22:03;;;;;;;0.80;0.80;;;;;;;25.79;58.91;98953.13;4776465;29;20043;-85
2021/08/07 06:24:30;;;;;;;0.32;0.32;;;;;;;25.96;56.94;98943.53;4798541;29;20718;-83
2021/08/07 06:26:56;;;;;;;0.40;0.40;;;;;;;26.07;56.60;98955.50;4807340;29;20138;-82
2021/08/07 06:29:22;;;;;;;0.20;0.20;;;;;;;25.94;57.06;98953.22;4806589;29;20062;-83
2021/08/07 06:31:48;;;;;;;0.20;0.20;;;;;;;25.44;58.23;98955.34;4801476;29;20034;-81
2021/08/07 06:34:15;;;;;;;0.20;0.20;;;;;;;25.23;59.36;98957.16;4814721;29;20069;-83
2021/08/07 06:36:41;;;;;;;0.20;0.20;;;;;;;25.13;59.72;98962.59;4788169;29;20055;-83
2021/08/07 06:39:08;;;;;;;0.15;0.15;;;;;;;24.79;60.57;98953.63;4783816;29;20462;-83
2021/08/07 06:41:35;;;;;;;0.20;0.20;;;;;;;24.27;61.28;98954.97;4783827;29;20083;-82
2021/08/07 06:44:17;;;;;;;;;;;;;;;24.36;61.12;98958.13;4772550;29;20047;-84
2021/08/07 06:46:43;;;;;;;0.20;0.20;;;;;;;24.62;61.86;98959.28;4790808;29;19926;-84
2021/08/07 06:49:09;;;;;;;0.20;0.20;;;;;;;24.67;60.03;98958.50;4780101;29;20554;-83
2021/08/07 06:51:36;;;;;;;0.20;0.20;;;;;;;24.84;60.23;98963.94;4778763;29;20115;-81
2021/08/07 06:54:03;;;;;;;0.20;0.20;;;;;;;24.84;59.30;98964.78;4740101;29;20158;-82
2021/08/07 06:56:32;;;;;;;0.20;0.20;;;;;;;24.56;60.58;98959.50;4774670;29;20047;-81
2021/08/07 06:59:00;;;;;;;0.10;0.10;;;;;;;24.74;60.09;98959.13;4774763;29;20060;-82
2021/08/07 07:01:27;;;;;;;0.20;0.20;;;;;;;24.86;60.59;98968.09;4774192;29;20051;-82
2021/08/07 07:03:53;;;;;;;0.10;0.10;;;;;;;24.53;61.25;98974.66;4762327;29;20510;-82
2021/08/07 07:06:20;;;;;;;0.10;0.10;;;;;;;24.58;61.69;98987.72;4760999;29;20039;-81
2021/08/07 07:08:49;;;;;;;0.10;0.10;;;;;;;24.26;63.06;99008.56;4797527;29;20138;-82
2021/08/07 07:11:17;;;;;;;0.10;0.10;;;;;;;24.27;62.95;99015.75;4777258;29;20961;-81
2021/08/07 07:13:45;;;;;;;0.10;0.10;;;;;;;23.99;63.97;99024.22;4774827;29;20454;-81
2021/08/07 07:16:12;;;;;;;0.10;0.10;;;;;;;24.17;63.57;99021.16;4798094;29;20114;-82
2021/08/07 07:18:38;;;;;;;0.10;0.10;;;;;;;24.14;63.15;99015.31;4792803;29;20051;-82
2021/08/07 07:21:05;;;;;;;0.10;0.10;;;;;;;24.28;62.16;99028.50;4780060;29;20062;-85
2021/08/07 07:23:32;;;;;;;0.10;0.10;;;;;;;24.11;61.87;99032.38;4752424;29;20276;-82
2021/08/07 07:26:00;;;;;;;0.20;0.20;;;;;;;24.25;62.26;99034.53;4793963;29;20047;-83
2021/08/07 07:28:28;;;;;;;0.20;0.20;;;;;;;24.27;62.16;99029.56;4761691;29;20082;-83
2021/08/07 07:30:56;;;;;;;0.30;0.30;;;;;;;25.02;60.12;99027.19;4758652;29;20065;-83
2021/08/07 07:33:22;;;;;;;0.70;0.70;;;;;;;26.64;56.10;99037.81;4772062;29;20054;-82
2021/08/07 07:35:50;;;;;;;0.40;0.40;;;;;;;27.18;54.19;99039.38;4778503;29;20817;-82
2021/08/07 07:38:17;;;;;;;0.20;0.20;;;;;;;27.31;54.11;99046.31;4754060;29;21343;-82
2021/08/07 07:40:44;;;;;;;0.15;0.15;;;;;;;26.64;55.22;99054.44;4778824;29;20054;-82
2021/08/07 07:43:13;;;;;;;0.17;0.17;;;;;;;25.49;58.03;99068.06;4789532;29;20042;-84
2021/08/07 07:45:40;;;;;;;0.25;0.20;;;;;;;25.14;58.02;99074.91;4788392;29;20043;-85
2021/08/07 07:48:08;;;;;;;0.20;0.20;;;;;;;25.08;58.74;99092.50;4783636;29;20056;-85
2021/08/07 07:50:35;;;;;;;0.10;0.10;;;;;;;24.67;59.74;99097.53;4805887;29;20123;-81
2021/08/07 07:53:01;;;;;;;0.10;0.10;;;;;;;24.35;60.61;99110.34;4772652;29;20070;-82
2021/08/07 07:55:30;;;;;;;0.10;0.10;;;;;;;24.20;61.25;99109.03;4794706;29;20055;-82
2021/08/07 07:58:01;;;;;;;0.10;0.10;;;;;;;24.43;61.43;99096.13;4792327;29;20050;-81
2021/08/07 08:00:30;;;;;;;0.10;0.10;;;;;;;24.21;61.58;99094.13;4764813;29;20041;-82
2021/08/07 08:02:59;;;;;;;0.10;0.10;;;;;;;23.94;62.16;99090.41;4776595;29;20047;-82
2021/08/07 08:05:34;;;;;;;0.10;0.10;;;;;;;23.75;62.43;99076.03;4769715;29;20046;-82
2021/08/07 08:08:04;;;;;;;0.10;0.10;;;;;;;23.78;63.02;99068.06;4799059;29;20047;-83
2021/08/07 08:10:30;;;;;;;0.10;0.10;;;;;;;23.67;63.26;99088.31;4762134;29;20062;-83
2021/08/07 08:12:57;;;;;;;0.10;0.10;;;;;;;23.57;64.25;99071.56;4796539;29;20118;-84
2021/08/07 08:15:24;;;;;;;0.10;0.10;;;;;;;23.57;63.95;99074.31;4811186;29;20141;-85
2021/08/07 08:17:51;;;;;;;0.10;0.10;;;;;;;23.49;63.73;99074.72;4753477;29;20054;-82
2021/08/07 08:20:19;;;;;;;0.10;0.10;;;;;;;23.47;64.00;99054.81;4769881;29;20132;-83
2021/08/07 08:22:46;;;;;;;0.10;0.10;;;;;;;23.47;64.85;99052.06;4765058;29;20602;-82
2021/08/07 08:25:15;;;;;;;0.10;0.10;;;;;;;23.55;65.76;99035.13;4785300;29;20157;-83
2021/08/07 08:27:41;;;;;;;0.10;0.10;;;;;;;23.68;65.37;99020.16;4781283;29;20051;-82
2021/08/07 08:30:08;;;;;;;0.20;0.20;;;;;;;23.80;65.20;99018.97;4782870;29;20046;-81
2021/08/07 08:32:34;;;;;;;0.20;0.20;;;;;;;23.94;65.42;99016.69;4799599;29;20153;-82
2021/08/07 08:35:03;;;;;;;0.20;0.20;;;;;;;24.12;65.57;99006.44;4796441;29;20082;-79
2021/08/07 08:37:31;;;;;;;0.20;0.20;;;;;;;24.30;65.11;98992.31;4786614;29;20059;-82
2021/08/07 08:39:58;;;;;;;0.30;0.30;;;;;;;24.71;64.70;98988.13;4779543;29;20043;-82
2021/08/07 08:42:26;;;;;;;0.30;0.30;;;;;;;25.12;62.42;98996.03;4767855;29;20577;-81
2021/08/07 08:44:52;;;;;;;1.30;1.30;;;;;;;26.62;58.08;99006.75;4782253;29;20530;-81
2021/08/07 08:47:20;;;;;;;1.33;1.33;;;;;;;28.44;52.71;98991.47;4778129;29;20389;-81
2021/08/07 08:49:50;;;;;;;1.05;1.05;;;;;;;29.73;50.13;98987.59;4781236;29;20216;-79
2021/08/07 08:52:17;;;;;;;0.60;0.60;;;;;;;29.62;49.11;98988.78;4776957;29;20059;-83
2021/08/07 08:54:43;;;;;;;0.70;0.70;;;;;;;30.23;48.06;98985.41;4764033;29;20097;-84
2021/08/07 08:57:11;;;;;;;0.47;0.47;;;;;;;30.25;47.60;98980.38;4762748;29;20057;-80
2021/08/07 08:59:37;;;;;;;0.47;0.47;;;;;;;30.14;47.88;98985.19;4772786;29;20635;-81
2021/08/07 09:02:03;;;;;;;0.55;0.55;;;;;;;30.41;47.49;98990.19;4796321;29;20043;-82
2021/08/07 09:04:29;;;;;;;0.47;0.47;;;;;;;30.34;47.43;98989.72;4771487;29;20050;-85
2021/08/07 09:06:55;;;;;;;0.40;0.40;;;;;;;30.60;46.80;98993.00;4777308;29;20059;-79
2021/08/07 09:09:41;;;;;;;0.30;0.30;;;;;;;30.47;47.71;98989.00;4777599;29;20057;-80
2021/08/07 09:12:13;;;;;;;0.20;0.20;;;;;;;29.90;49.24;99001.88;4759618;29;20063;-78
2021/08/07 09:14:41;;;;;;;0.20;0.20;;;;;;;29.62;50.61;99016.66;4789120;29;20428;-77
2021/08/07 09:17:10;;;;;;;0.10;0.10;;;;;;;28.60;51.07;99012.56;4760076;29;20046;-77
2021/08/07 09:19:39;;;;;;;0.10;0.10;;;;;;;27.93;52.64;99048.00;4778076;29;20631;-82
2021/08/07 09:22:07;;;;;;;0.10;0.10;;;;;;;27.04;55.14;99052.91;4801812;29;20114;-79
2021/08/07 09:24:53;;;;;;;0.10;0.10;;;;;;;26.86;55.31;99050.66;4783132;29;20051;-82
2021/08/07 09:27:47;;;;;;;0.10;0.10;;;;;;;26.73;55.28;99040.91;4776889;29;20062;-80
2021/08/07 09:30:17;;;;;;;0.20;0.20;;;;;;;26.64;55.58;99048.91;4773771;29;20061;-76
2021/08/07 09:32:50;;;;;;;0.20;0.20;;;;;;;26.63;55.99;99041.69;4777335;29;20110;-79
2021/08/07 09:35:34;;;;;;;0.10;0.10;;;;;;;26.76;56.52;99045.06;4794080;29;20108;-81
2021/08/07 09:38:16;;;;;;;0.10;0.10;;;;;;;26.59;56.49;99046.13;4787888;29;20563;-83
2021/08/07 09:41:00;;;;;;;0.10;0.10;;;;;;;26.51;57.42;99038.34;4802386;29;20045;-82
2021/08/07 09:43:47;;;;;;;0.10;0.10;;;;;;;26.55;57.21;99047.78;4781825;29;20730;-80
2021/08/07 09:46:22;;;;;;;0.10;0.10;;;;;;;26.53;57.84;99046.38;4774056;29;20067;-81
2021/08/07 09:49:07;;;;;;;0.10;0.10;;;;;;;26.35;58.30;99040.16;4774856;24;20051;31
2021/08/07 09:51:35;;;;;;;0.10;0.10;;;;;;;26.27;57.77;99025.97;4741118;30;20063;-83
2021/08/07 09:54:16;;;;;;;0.10;0.10;;;;;;;26.21;58.94;99017.63;4745219;30;20136;-81
2021/08/07 09:56:50;;;;;;;0.10;0.10;;;;;;;26.18;58.99;99001.56;4759827;30;20154;-82
2021/08/07 09:59:19;;;;;;;0.10;0.10;;;;;;;26.28;59.01;99011.84;4745756;30;20576;-82
2021/08/07 10:01:47;;;;;;;0.13;0.13;;;;;;;26.41;58.99;99021.63;4748597;30;20055;-84
2021/08/07 10:04:15;;;;;;;0.20;0.20;;;;;;;26.58;57.56;99032.50;4735799;30;20048;-82
2021/08/07 10:06:45;;;;;;;0.40;0.40;;;;;;;27.49;56.22;99045.78;4750528;30;20438;-84
2021/08/07 10:09:15;;;;;;;0.20;0.20;;;;;;;28.08;54.06;99039.69;4764330;30;20046;-82
2021/08/07 10:12:05;;;;;;;0.20;0.20;;;;;;;28.07;54.34;99038.00;4731527;30;20847;-83
2021/08/07 10:14:38;;;;;;;;;;;;;;;28.10;53.32;99040.22;4754969;30;20035;-84
2021/08/07 10:17:06;;;;;;;0.57;0.57;;;;;;;28.55;51.52;99044.00;4770595;30;20020;-82
2021/08/07 10:19:38;;;;;;;0.10;0.10;;;;;;;28.52;52.27;99058.50;4756548;30;20047;-83
2021/08/07 10:22:06;;;;;;;0.20;0.20;;;;;;;28.21;50.99;99054.09;4746458;30;20058;-82
2021/08/07 10:24:36;;;;;;;1.08;1.08;;;;;;;29.23;48.60;99060.09;4751696;30;20122;-81
2021/08/07 10:27:04;;;;;;;0.80;0.80;;;;;;;30.21;45.23;99062.97;4745160;30;20131;-81
2021/08/07 10:29:47;;;;;;;0.10;0.10;;;;;;;29.87;46.09;99079.69;4747479;30;20040;-82
2021/08/07 10:32:14;;;;;;;0.10;0.10;;;;;;;28.83;47.76;99055.56;4711400;30;20060;-84
2021/08/07 10:34:44;;;;;;;0.10;0.10;;;;;;;28.58;48.52;99071.25;4727754;30;20083;-83
2021/08/07 10:37:12;;;;;;;0.10;0.10;;;;;;;28.43;48.14;99062.94;4761787;30;20060;-84
2021/08/07 10:39:38;;;;;;;0.20;0.20;;;;;;;28.33;48.69;99068.50;4746961;30;20074;-84
2021/08/07 10:42:05;;;;;;;0.50;0.50;;;;;;;28.88;47.13;99069.44;4749433;30;20051;-82
2021/08/07 10:44:33;;;;;;;0.10;0.10;;;;;;;28.84;48.07;99060.00;4731946;30;20051;-84
2021/08/07 10:47:00;;;;;;;0.10;0.10;;;;;;;28.44;48.55;99070.16;4753713;30;20051;-84
2021/08/07 10:49:35;;;;;;;0.10;0.10;;;;;;;28.06;49.12;99041.06;4758279;30;20047;-84
2021/08/07 10:52:22;;;;;;;0.10;0.10;;;;;;;27.90;49.57;99056.94;4760048;30;20107;-83
2021/08/07 10:54:50;;;;;;;0.10;0.10;;;;;;;27.82;50.22;99049.13;4781139;29;20062;-85
2021/08/07 10:57:40;;;;;;;0.10;0.10;;;;;;;27.64;50.61;99050.50;4783697;29;20112;-84
2021/08/07 11:00:15;;;;;;;0.10;0.10;;;;;;;27.23;51.83;99057.97;4770299;30;20052;-82
2021/08/07 11:02:46;;;;;;;0.10;0.10;;;;;;;26.72;55.36;99052.25;4766269;30;20115;-83
2021/08/07 11:05:17;;;;;;;0.10;0.10;;;;;;;26.01;57.86;99050.75;4725692;30;20569;-85
2021/08/07 11:07:44;;;;;;;0.10;0.10;;;;;;;25.72;59.01;99064.09;4793420;29;20157;-82
2021/08/07 11:10:12;;;;;;;0.10;0.10;;;;;;;25.55;59.07;99078.06;4765291;30;20068;-83
2021/08/07 11:12:45;;;;;;;0.10;0.10;;;;;;;25.57;65.53;99078.66;4778200;30;20075;-85
2021/08/07 11:15:33;;;;;;;0.10;0.10;;;;;;;25.49;64.70;99065.28;4736527;30;20068;-82
2021/08/07 11:18:25;;;;;;;0.10;0.10;;;;;;;25.71;65.69;99054.97;4756384;30;20060;-84
2021/08/07 11:20:52;;;;;;;0.15;0.15;;;;;;;25.72;65.88;99051.06;4758766;30;20056;-84
2021/08/07 11:23:21;;;;;;;0.10;0.10;;;;;;;25.80;65.22;99046.19;4764726;30;20101;-82
2021/08/07 11:25:51;;;;;;;0.10;0.10;;;;;;;25.85;67.14;99043.44;4782973;29;20044;-83
2021/08/07 11:28:19;;;;;;;0.10;0.10;;;;;;;25.73;67.23;99055.50;4742218;30;20135;-83
2021/08/07 11:30:46;;;;;;;0.10;0.10;;;;;;;25.60;68.46;99067.03;4762642;30;20048;-82
2021/08/07 11:33:56;;;;;;;0.10;0.10;;;;;;;25.46;71.60;99071.34;4745575;30;20598;-82
2021/08/07 11:36:32;;;;;;;0.10;0.10;;;;;;;25.34;72.85;99054.06;4770645;30;20076;-85
2021/08/07 11:39:03;;;;;;;0.10;0.10;;;;;;;25.24;70.27;99044.56;4756862;30;20095;-82
2021/08/07 11:41:35;;;;;;;0.20;0.20;;;;;;;25.15;69.32;99043.38;4761816;30;20115;-82
2021/08/07 11:44:07;;;;;;;0.10;0.10;;;;;;;25.08;71.59;99033.56;4760078;29;20054;-82
2021/08/07 11:46:37;;;;;;;0.10;0.10;;;;;;;25.03;71.75;99039.91;4725603;30;20135;-82